createdAt,value
2022-10-22T00:00:00.034Z,22.26
2022-10-22T00:02:28.875Z,22.25
2022-10-22T00:04:57.038Z,22.26
2022-10-22T00:07:24.511Z,22.23
2022-10-22T00:09:51.039Z,22.22
2022-10-22T00:12:17.539Z,22.24
2022-10-22T00:14:44.011Z,22.22
2022-10-22T00:17:11.504Z,22.27
2022-10-22T00:19:38.616Z,22.29
2022-10-22T00:22:08.728Z,22.32
2022-10-22T00:24:35.211Z,22.31
2022-10-22T00:27:03.902Z,22.34
2022-10-22T00:29:31.386Z,22.34
2022-10-22T00:31:57.847Z,22.35
2022-10-22T00:34:27.936Z,22.35
2022-10-22T00:36:55.042Z,22.38
2022-10-22T00:39:23.379Z,22.41
2022-10-22T00:41:50.781Z,22.41
2022-10-22T00:48:05.754Z,22.42
2022-10-22T00:50:40.216Z,22.41
2022-10-22T00:53:12.955Z,22.42
2022-10-22T00:55:52.759Z,22.41
2022-10-22T00:58:21.204Z,22.42
2022-10-22T01:00:50.801Z,22.40
2022-10-22T01:03:17.304Z,22.39
2022-10-22T01:05:52.265Z,22.39
2022-10-22T01:08:27.019Z,22.37
2022-10-22T01:11:15.455Z,22.38
2022-10-22T01:13:51.512Z,22.37
2022-10-22T01:16:23.132Z,22.34
2022-10-22T01:19:30.569Z,22.35
2022-10-22T01:22:24.733Z,22.33
2022-10-22T01:24:59.614Z,22.31
2022-10-22T01:28:05.565Z,22.31
2022-10-22T01:30:32.431Z,22.28
2022-10-22T01:33:01.113Z,22.27
2022-10-22T01:35:35.223Z,22.25
2022-10-22T01:38:07.724Z,22.25
2022-10-22T01:40:35.192Z,22.25
2022-10-22T01:43:03.908Z,22.26
2022-10-22T01:45:32.766Z,22.25
2022-10-22T01:48:07.523Z,22.25
2022-10-22T01:50:55.519Z,22.21
2022-10-22T01:53:31.198Z,22.20
2022-10-22T01:56:19.833Z,22.22
2022-10-22T01:58:54.223Z,22.19
2022-10-22T02:01:36.699Z,22.20
2022-10-22T02:04:13.552Z,22.22
2022-10-22T02:06:42.438Z,22.20
2022-10-22T02:09:10.494Z,22.22
2022-10-22T02:11:37.258Z,22.20
2022-10-22T02:14:05.896Z,22.18
2022-10-22T02:16:42.549Z,22.18
2022-10-22T02:19:35.679Z,22.19
2022-10-22T02:22:02.142Z,22.18
2022-10-22T02:24:28.607Z,22.19
2022-10-22T02:27:01.793Z,22.16
2022-10-22T02:29:30.931Z,22.17
2022-10-22T02:32:02.368Z,22.17
2022-10-22T02:34:32.603Z,22.16
2022-10-22T02:39:46.203Z,22.15
2022-10-22T02:42:13.180Z,22.14
2022-10-22T02:44:40.289Z,22.14
2022-10-22T02:47:07.103Z,22.12
2022-10-22T02:49:34.883Z,22.09
2022-10-22T02:52:01.466Z,22.10
2022-10-22T02:54:30.362Z,22.09
2022-10-22T02:56:56.828Z,22.10
2022-10-22T02:59:23.344Z,22.09
2022-10-22T03:01:50.305Z,22.09
2022-10-22T03:04:16.997Z,22.10
2022-10-22T03:06:45.684Z,22.08
2022-10-22T03:09:12.502Z,22.09
2022-10-22T03:11:38.970Z,22.08
2022-10-22T03:14:05.491Z,22.07
2022-10-22T03:16:32.858Z,22.08
2022-10-22T03:19:02.880Z,22.05
2022-10-22T03:21:39.687Z,22.04
2022-10-22T03:24:11.983Z,22.05
2022-10-22T03:26:38.888Z,22.04
2022-10-22T03:29:06.591Z,22.03
2022-10-22T03:31:33.109Z,22.04
2022-10-22T03:34:03.876Z,22.00
2022-10-22T03:36:30.857Z,22.05
2022-10-22T03:38:59.867Z,22.04
2022-10-22T03:41:27.111Z,22.04
2022-10-22T03:43:54.559Z,22.04
2022-10-22T03:46:21.047Z,22.04
2022-10-22T03:48:48.926Z,22.03
2022-10-22T03:51:16.752Z,22.03
2022-10-22T03:53:44.558Z,22.02
2022-10-22T03:56:13.672Z,22.01
2022-10-22T03:58:40.943Z,22.02
2022-10-22T04:01:09.890Z,22.02
2022-10-22T04:03:37.984Z,22.02
2022-10-22T04:06:06.127Z,22.01
2022-10-22T04:08:34.088Z,22.00
2022-10-22T04:11:00.617Z,21.99
2022-10-22T04:13:27.153Z,21.99
2022-10-22T04:15:54.039Z,21.99
2022-10-22T04:18:22.813Z,22.00
2022-10-22T04:20:51.248Z,21.96
2022-10-22T04:23:17.934Z,21.97
2022-10-22T04:25:44.395Z,21.98
2022-10-22T04:28:11.870Z,21.98
2022-10-22T04:30:38.336Z,21.97
2022-10-22T04:33:05.170Z,21.95
2022-10-22T04:35:31.629Z,21.94
2022-10-22T04:37:58.162Z,21.94
2022-10-22T04:40:27.279Z,21.94
2022-10-22T04:42:53.761Z,21.94
2022-10-22T04:45:21.417Z,21.94
2022-10-22T04:47:47.871Z,21.94
2022-10-22T04:50:18.077Z,21.93
2022-10-22T04:52:44.540Z,21.93
2022-10-22T04:55:11.222Z,21.93
2022-10-22T04:57:37.881Z,21.94
2022-10-22T05:00:04.796Z,21.94
2022-10-22T05:02:31.259Z,21.93
2022-10-22T05:04:59.874Z,21.94
2022-10-22T05:07:31.933Z,21.93
2022-10-22T05:09:58.395Z,21.95
2022-10-22T05:12:26.025Z,21.93
2022-10-22T05:14:52.804Z,21.92
2022-10-22T05:17:20.452Z,21.90
2022-10-22T05:19:46.906Z,21.89
2022-10-22T05:22:14.616Z,21.88
2022-10-22T05:24:44.192Z,21.87
2022-10-22T05:27:10.707Z,21.86
2022-10-22T05:29:37.221Z,21.87
2022-10-22T05:32:04.937Z,21.87
2022-10-22T05:34:33.277Z,21.86
2022-10-22T05:37:01.695Z,21.87
2022-10-22T05:39:28.170Z,21.87
2022-10-22T05:41:56.881Z,21.85
2022-10-22T05:44:23.345Z,21.85
2022-10-22T05:46:50.094Z,21.83
2022-10-22T05:49:16.713Z,21.87
2022-10-22T05:51:45.710Z,21.89
2022-10-22T05:54:19.389Z,21.93
2022-10-22T05:56:48.115Z,21.94
2022-10-22T05:59:14.634Z,21.98
2022-10-22T06:01:43.189Z,21.99
2022-10-22T06:04:10.951Z,22.01
2022-10-22T06:06:48.843Z,22.09
2022-10-22T06:09:21.506Z,22.14
2022-10-22T06:11:48.395Z,22.21
2022-10-22T06:14:15.329Z,22.31
2022-10-22T06:16:43.864Z,22.33
2022-10-22T06:19:13.350Z,22.33
2022-10-22T06:21:39.814Z,22.33
2022-10-22T06:24:06.607Z,22.33
2022-10-22T06:26:33.433Z,22.34
2022-10-22T06:29:00.162Z,22.36
2022-10-22T06:31:28.851Z,22.39
2022-10-22T06:33:58.845Z,22.37
2022-10-22T06:36:25.827Z,22.34
2022-10-22T06:38:54.455Z,22.33
2022-10-22T06:41:24.352Z,22.31
2022-10-22T06:43:53.625Z,22.29
2022-10-22T06:46:21.939Z,22.28
2022-10-22T06:48:56.301Z,22.25
2022-10-22T06:51:23.130Z,22.24
2022-10-22T06:53:49.636Z,22.19
2022-10-22T06:56:18.343Z,22.22
2022-10-22T06:58:49.095Z,22.16
2022-10-22T07:01:17.009Z,22.13
2022-10-22T07:03:43.626Z,22.14
2022-10-22T07:06:13.115Z,22.11
2022-10-22T07:08:39.966Z,22.13
2022-10-22T07:11:07.923Z,22.11
2022-10-22T07:13:35.091Z,22.09
2022-10-22T07:16:01.696Z,22.11
2022-10-22T07:18:29.195Z,22.10
2022-10-22T07:20:55.721Z,22.14
2022-10-22T07:23:22.452Z,22.15
2022-10-22T07:25:48.984Z,22.14
2022-10-22T07:28:15.481Z,22.16
2022-10-22T07:30:42.380Z,22.17
2022-10-22T07:33:09.390Z,22.20
2022-10-22T07:35:39.014Z,22.24
2022-10-22T07:38:06.186Z,22.26
2022-10-22T07:40:33.057Z,22.32
2022-10-22T07:43:01.165Z,22.36
2022-10-22T07:45:28.277Z,22.40
2022-10-22T07:47:54.772Z,22.43
2022-10-22T07:50:24.121Z,22.48
2022-10-22T07:52:52.904Z,22.53
2022-10-22T07:55:25.577Z,22.57
2022-10-22T07:57:54.194Z,22.63
2022-10-22T08:00:24.593Z,22.66
2022-10-22T08:02:52.390Z,22.70
2022-10-22T08:05:19.271Z,22.73
2022-10-22T08:07:46.144Z,22.70
2022-10-22T08:10:16.389Z,22.71
2022-10-22T08:12:44.542Z,22.74
2022-10-22T08:15:12.848Z,22.77
2022-10-22T08:17:39.664Z,22.80
2022-10-22T08:20:07.035Z,22.87
2022-10-22T08:22:34.755Z,22.98
2022-10-22T08:25:01.199Z,23.07
2022-10-22T08:27:27.934Z,23.14
2022-10-22T08:29:54.757Z,23.23
2022-10-22T08:32:23.896Z,23.31
2022-10-22T08:34:50.667Z,23.36
2022-10-22T08:37:20.278Z,23.42
2022-10-22T08:39:49.263Z,23.51
2022-10-22T08:42:45.620Z,23.57
2022-10-22T08:45:22.858Z,23.63
2022-10-22T08:48:08.739Z,23.66
2022-10-22T08:50:40.780Z,23.72
2022-10-22T08:53:17.841Z,23.74
2022-10-22T08:55:47.523Z,23.77
2022-10-22T08:58:36.168Z,23.73
2022-10-22T09:01:32.975Z,23.86
2022-10-22T09:04:27.326Z,23.90
2022-10-22T09:06:54.508Z,23.90
2022-10-22T09:09:21.113Z,23.81
2022-10-22T09:11:53.058Z,23.77
2022-10-22T09:14:21.496Z,23.73
2022-10-22T09:17:15.083Z,23.67
2022-10-22T09:19:54.297Z,23.64
2022-10-22T09:22:51.173Z,23.57
2022-10-22T09:25:28.266Z,23.55
2022-10-22T09:27:58.371Z,23.54
2022-10-22T09:30:29.918Z,23.54
2022-10-22T09:33:24.728Z,23.62
2022-10-22T09:35:58.584Z,23.69
2022-10-22T09:38:27.621Z,23.71
2022-10-22T09:40:55.701Z,23.74
2022-10-22T09:43:36.096Z,23.53
2022-10-22T09:46:04.706Z,22.86
2022-10-22T09:49:10.479Z,23.01
2022-10-22T09:51:58.461Z,23.42
2022-10-22T09:54:46.341Z,22.86
2022-10-22T09:57:18.824Z,22.57
2022-10-22T09:59:54.694Z,22.35
2022-10-22T10:02:39.232Z,22.31
2022-10-22T10:05:06.485Z,22.20
2022-10-22T10:07:35.316Z,22.18
2022-10-22T10:10:07.057Z,22.67
2022-10-22T10:13:05.695Z,23.00
2022-10-22T10:15:41.844Z,23.11
2022-10-22T10:18:46.773Z,23.15
2022-10-22T10:21:35.768Z,23.10
2022-10-22T10:24:42.565Z,23.21
2022-10-22T10:27:30.899Z,23.22
2022-10-22T10:30:17.648Z,23.24
2022-10-22T10:33:05.868Z,23.24
2022-10-22T10:35:55.060Z,23.24
2022-10-22T10:38:46.166Z,23.26
2022-10-22T10:41:27.650Z,23.26
2022-10-22T10:44:12.565Z,23.24
2022-10-22T10:46:50.535Z,23.29
2022-10-22T10:49:23.101Z,23.29
2022-10-22T10:52:22.662Z,23.27
2022-10-22T10:55:14.592Z,23.24
2022-10-22T10:58:15.339Z,23.36
2022-10-22T11:01:18.070Z,23.41
2022-10-22T11:04:20.250Z,23.44
2022-10-22T11:06:48.449Z,23.41
2022-10-22T11:09:24.374Z,23.42
2022-10-22T11:11:55.807Z,23.45
2022-10-22T11:14:44.191Z,23.55
2022-10-22T11:17:17.794Z,23.59
2022-10-22T11:19:52.318Z,23.58
2022-10-22T11:22:28.823Z,23.61
2022-10-22T11:25:04.062Z,23.62
2022-10-22T11:27:38.672Z,23.67
2022-10-22T11:30:17.110Z,23.64
2022-10-22T11:32:47.891Z,23.54
2022-10-22T11:35:26.040Z,23.47
2022-10-22T11:37:54.335Z,23.42
2022-10-22T11:40:40.299Z,23.39
2022-10-22T11:43:12.166Z,23.34
2022-10-22T11:45:46.695Z,23.36
2022-10-22T11:48:21.182Z,23.33
2022-10-22T11:50:53.017Z,23.33
2022-10-22T11:53:30.580Z,23.29
2022-10-22T11:55:59.906Z,23.27
2022-10-22T11:58:29.905Z,23.26
2022-10-22T12:01:02.464Z,23.29
2022-10-22T12:03:31.903Z,23.29
2022-10-22T12:06:15.292Z,23.26
2022-10-22T12:08:56.796Z,23.26
2022-10-22T12:11:43.633Z,23.23
2022-10-22T12:14:22.947Z,23.21
2022-10-22T12:16:56.961Z,23.16
2022-10-22T12:19:24.042Z,23.15
2022-10-22T12:21:55.638Z,23.12
2022-10-22T12:24:24.398Z,23.08
2022-10-22T12:26:52.643Z,23.06
2022-10-22T12:29:23.708Z,23.05
2022-10-22T12:31:50.623Z,23.02
2022-10-22T12:34:26.865Z,22.98
2022-10-22T12:36:53.501Z,22.94
2022-10-22T12:39:27.781Z,22.89
2022-10-22T12:41:57.160Z,22.87
2022-10-22T12:44:23.879Z,22.84
2022-10-22T12:46:54.608Z,22.85
2022-10-22T12:49:45.524Z,22.85
2022-10-22T12:52:38.575Z,22.84
2022-10-22T12:55:28.215Z,22.95
2022-10-22T12:57:54.712Z,22.97
2022-10-22T13:00:25.934Z,22.97
2022-10-22T13:02:52.875Z,22.95
2022-10-22T13:05:19.267Z,22.93
2022-10-22T13:07:50.807Z,22.92
2022-10-22T13:10:18.585Z,22.94
2022-10-22T13:12:48.904Z,22.95
2022-10-22T13:15:29.923Z,22.93
2022-10-22T13:18:19.079Z,22.89
2022-10-22T13:20:56.752Z,22.90
2022-10-22T13:23:25.101Z,22.87
2022-10-22T13:25:59.208Z,22.84
2022-10-22T13:28:26.454Z,22.82
2022-10-22T13:31:08.755Z,22.82
2022-10-22T13:33:42.171Z,22.76
2022-10-22T13:36:09.475Z,22.75
2022-10-22T13:38:35.931Z,22.74
2022-10-22T13:41:04.748Z,22.75
2022-10-22T13:43:33.367Z,22.77
2022-10-22T13:46:00.194Z,22.75
2022-10-22T13:48:26.888Z,22.77
2022-10-22T13:50:53.556Z,22.78
2022-10-22T13:53:24.569Z,22.76
2022-10-22T13:55:51.930Z,22.77
2022-10-22T13:58:20.367Z,22.76
2022-10-22T14:00:54.415Z,22.77
2022-10-22T14:03:21.951Z,22.79
2022-10-22T14:05:48.496Z,22.80
2022-10-22T14:08:16.942Z,22.80
2022-10-22T14:10:43.472Z,22.78
2022-10-22T14:13:14.136Z,22.77
2022-10-22T14:15:41.862Z,22.75
2022-10-22T14:18:08.361Z,22.76
2022-10-22T14:20:37.964Z,22.76
2022-10-22T14:23:15.103Z,22.74
2022-10-22T14:25:41.635Z,22.77
2022-10-22T14:28:11.097Z,22.78
2022-10-22T14:30:37.629Z,22.80
2022-10-22T14:33:19.487Z,22.83
2022-10-22T14:35:45.997Z,22.86
2022-10-22T14:38:12.507Z,22.96
2022-10-22T14:40:39.308Z,23.06
2022-10-22T14:43:05.955Z,23.21
2022-10-22T14:45:34.733Z,23.19
2022-10-22T14:48:02.542Z,23.17
2022-10-22T14:50:29.227Z,23.20
2022-10-22T14:52:57.727Z,23.19
2022-10-22T14:55:26.384Z,23.21
2022-10-22T14:57:53.702Z,23.25
2022-10-22T15:00:20.260Z,23.26
2022-10-22T15:02:47.257Z,23.26
2022-10-22T15:05:14.024Z,23.25
2022-10-22T15:07:40.698Z,23.25
2022-10-22T15:10:08.067Z,23.26
2022-10-22T15:12:34.530Z,23.29
2022-10-22T15:15:01.251Z,23.27
2022-10-22T15:17:28.155Z,23.32
2022-10-22T15:19:56.230Z,23.33
2022-10-22T15:22:22.939Z,23.33
2022-10-22T15:24:49.642Z,23.34
2022-10-22T15:27:16.095Z,23.33
2022-10-22T15:29:42.630Z,23.32
2022-10-22T15:32:10.423Z,23.33
2022-10-22T15:34:37.739Z,23.32
2022-10-22T15:37:05.808Z,23.32
2022-10-22T15:39:33.745Z,23.29
2022-10-22T15:42:00.255Z,23.26
2022-10-22T15:44:28.927Z,23.25
2022-10-22T15:46:55.571Z,23.24
2022-10-22T15:49:26.083Z,23.21
2022-10-22T15:51:52.827Z,23.21
2022-10-22T15:54:21.407Z,23.20
2022-10-22T16:01:41.199Z,23.30
2022-10-22T16:04:08.036Z,23.35
2022-10-22T16:06:45.183Z,23.36
2022-10-22T16:09:13.518Z,23.34
2022-10-22T16:11:40.895Z,23.35
2022-10-22T16:14:07.443Z,23.34
2022-10-22T16:16:34.893Z,23.35
2022-10-22T16:19:01.747Z,23.33
2022-10-22T16:21:28.338Z,23.38
2022-10-22T16:23:54.819Z,23.39
2022-10-22T16:26:21.334Z,23.40
2022-10-22T16:28:48.835Z,23.39
2022-10-22T16:31:17.056Z,23.40
2022-10-22T16:33:46.434Z,23.42
2022-10-22T16:36:18.221Z,23.43
2022-10-22T16:38:45.134Z,23.44
2022-10-22T16:41:15.667Z,23.39
2022-10-22T16:43:42.752Z,23.43
2022-10-22T16:46:09.227Z,23.43
2022-10-22T16:48:37.758Z,23.46
2022-10-22T16:51:10.507Z,23.46
2022-10-22T16:53:36.967Z,23.48
2022-10-22T16:56:03.522Z,23.51
2022-10-22T16:58:29.991Z,23.51
2022-10-22T17:00:56.508Z,23.53
2022-10-22T17:03:25.995Z,23.55
2022-10-22T17:05:54.141Z,23.59
2022-10-22T17:08:20.635Z,23.53
2022-10-22T17:10:47.584Z,23.44
2022-10-22T17:13:14.354Z,23.40
2022-10-22T17:15:41.327Z,23.35
2022-10-22T17:18:07.819Z,23.30
2022-10-22T17:20:34.268Z,23.30
2022-10-22T17:23:00.726Z,23.51
2022-10-22T17:25:36.982Z,23.56
2022-10-22T17:28:03.450Z,23.52
2022-10-22T17:30:30.409Z,23.45
2022-10-22T17:32:56.922Z,23.41
2022-10-22T17:35:23.664Z,23.36
2022-10-22T17:37:50.118Z,23.35
2022-10-22T17:40:16.587Z,23.34
2022-10-22T17:42:45.327Z,23.34
2022-10-22T17:45:11.782Z,23.34
2022-10-22T17:47:38.377Z,23.34
2022-10-22T17:50:05.346Z,23.37
2022-10-22T17:52:31.802Z,23.34
2022-10-22T17:54:58.318Z,23.32
2022-10-22T17:57:24.820Z,23.30
2022-10-22T18:02:17.764Z,23.30
2022-10-22T18:04:44.573Z,23.30
2022-10-22T18:07:11.255Z,23.21
2022-10-22T18:09:38.705Z,23.34
2022-10-22T18:12:05.415Z,23.36
2022-10-22T18:14:31.855Z,23.38
2022-10-22T18:16:58.310Z,23.30
2022-10-22T18:19:25.191Z,23.31
2022-10-22T18:21:51.916Z,23.30
2022-10-22T18:24:18.474Z,23.31
2022-10-22T18:26:47.019Z,23.31
2022-10-22T18:29:15.247Z,23.30
2022-10-22T18:31:42.042Z,23.27
2022-10-22T18:34:08.502Z,23.29
2022-10-22T18:36:34.966Z,23.29
2022-10-22T18:41:28.781Z,23.26
2022-10-22T18:43:59.768Z,23.29
2022-10-22T18:46:26.493Z,23.28
2022-10-22T18:48:56.286Z,23.29
2022-10-22T18:51:23.086Z,23.27
2022-10-22T18:54:05.363Z,23.27
2022-10-22T18:56:32.141Z,23.31
2022-10-22T18:58:58.854Z,23.34
2022-10-22T19:01:29.441Z,23.32
2022-10-22T19:03:56.603Z,23.37
2022-10-22T19:06:35.799Z,23.34
2022-10-22T19:09:03.835Z,23.40
2022-10-22T19:11:30.391Z,23.38
2022-10-22T19:13:56.875Z,23.39
2022-10-22T19:16:23.934Z,23.43
2022-10-22T19:18:51.940Z,23.41
2022-10-22T19:21:18.861Z,23.43
2022-10-22T19:26:17.705Z,23.37
2022-10-22T19:28:44.695Z,23.42
2022-10-22T19:31:13.501Z,23.43
2022-10-22T19:33:40.017Z,23.45
2022-10-22T19:36:09.353Z,23.45
2022-10-22T19:38:38.018Z,23.45
2022-10-22T19:41:09.720Z,23.44
2022-10-22T19:43:36.173Z,23.46
2022-10-22T19:46:04.113Z,23.43
2022-10-22T19:48:30.548Z,23.41
2022-10-22T19:51:04.764Z,23.41
2022-10-22T19:53:34.143Z,23.41
2022-10-22T19:56:00.773Z,23.36
2022-10-22T19:58:27.807Z,23.35
2022-10-22T20:00:54.370Z,23.35
2022-10-22T20:03:20.891Z,23.34
2022-10-22T20:05:47.659Z,23.31
2022-10-22T20:08:14.148Z,23.31
2022-10-22T20:10:40.655Z,23.30
2022-10-22T20:15:33.503Z,23.27
2022-10-22T20:17:59.944Z,23.26
2022-10-22T20:20:26.662Z,23.24
2022-10-22T20:22:53.178Z,23.24
2022-10-22T20:25:19.628Z,23.20
2022-10-22T20:27:46.415Z,23.19
2022-10-22T20:30:13.002Z,23.19
2022-10-22T20:32:40.036Z,23.16
2022-10-22T20:35:07.191Z,23.16
2022-10-22T20:37:34.007Z,23.13
2022-10-22T20:40:00.468Z,23.13
2022-10-22T20:42:26.928Z,23.13
2022-10-22T20:44:53.368Z,23.12
2022-10-22T20:47:19.816Z,23.10
2022-10-22T20:49:46.381Z,23.10
2022-10-22T20:52:13.090Z,23.10
2022-10-22T20:54:42.406Z,23.10
2022-10-22T20:57:08.886Z,23.09
2022-10-22T20:59:35.403Z,23.15
2022-10-22T21:02:01.933Z,23.11
2022-10-22T21:04:28.542Z,23.09
2022-10-22T21:06:55.979Z,23.09
2022-10-22T21:09:22.789Z,23.10
2022-10-22T21:11:49.647Z,23.10
2022-10-22T21:14:17.736Z,23.11
2022-10-22T21:16:45.270Z,23.12
2022-10-22T21:19:11.749Z,23.12
2022-10-22T21:21:38.240Z,23.16
2022-10-22T21:24:04.790Z,23.20
2022-10-22T21:26:31.245Z,23.25
2022-10-22T21:31:26.099Z,23.36
2022-10-22T21:33:53.213Z,23.42
2022-10-22T21:36:22.657Z,23.45
2022-10-22T21:38:51.335Z,23.46
2022-10-22T21:41:18.174Z,23.45
2022-10-22T21:43:45.114Z,23.44
2022-10-22T21:46:18.677Z,23.41
2022-10-22T21:48:45.331Z,23.38
2022-10-22T21:51:13.520Z,23.34
2022-10-22T21:53:40.031Z,23.29
2022-10-22T21:56:07.622Z,23.26
2022-10-22T21:58:35.225Z,23.25
2022-10-22T22:01:01.992Z,23.25
2022-10-22T22:03:28.587Z,23.23
2022-10-22T22:06:01.960Z,23.23
2022-10-22T22:08:28.555Z,23.21
2022-10-22T22:11:08.852Z,23.16
2022-10-22T22:13:35.755Z,23.17
2022-10-22T22:16:06.346Z,23.17
2022-10-22T22:18:32.912Z,23.12
2022-10-22T22:20:59.664Z,23.12
2022-10-22T22:23:26.214Z,23.11
2022-10-22T22:25:52.681Z,23.09
2022-10-22T22:28:19.125Z,23.09
2022-10-22T22:30:45.582Z,23.07
2022-10-22T22:33:12.635Z,23.06
2022-10-22T22:38:10.451Z,23.02
2022-10-22T22:40:38.456Z,22.99
2022-10-22T22:43:05.101Z,22.98
2022-10-22T22:45:31.555Z,22.98
2022-10-22T22:47:58.127Z,22.97
2022-10-22T22:50:24.565Z,22.97
2022-10-22T22:52:51.006Z,22.97
2022-10-22T22:55:17.495Z,22.93
2022-10-22T22:57:44.003Z,22.92
2022-10-22T23:00:10.986Z,22.91
2022-10-22T23:02:37.450Z,22.91
2022-10-22T23:05:04.010Z,22.91
2022-10-22T23:07:30.474Z,22.89
2022-10-22T23:09:56.923Z,22.90
2022-10-22T23:12:23.703Z,22.90
2022-10-22T23:14:51.478Z,22.90
2022-10-22T23:17:18.547Z,22.92
2022-10-22T23:19:45.079Z,22.91
2022-10-22T23:22:11.848Z,22.93
2022-10-22T23:24:38.355Z,22.93
2022-10-22T23:27:05.114Z,22.96
2022-10-22T23:29:33.174Z,22.99
2022-10-22T23:32:01.242Z,23.01
2022-10-22T23:34:27.915Z,23.04
2022-10-22T23:36:54.649Z,23.03
2022-10-22T23:39:23.431Z,23.05
2022-10-22T23:41:49.984Z,23.04
2022-10-22T23:44:16.467Z,23.04
2022-10-22T23:46:43.081Z,23.03
2022-10-22T23:49:09.717Z,23.00
2022-10-22T23:51:36.180Z,23.00
2022-10-22T23:54:07.363Z,22.99
2022-10-22T23:56:35.771Z,22.97
2022-10-22T23:59:02.374Z,22.95
